createdAt,value
2023-03-20T00:10:41.405Z,10.10
2023-03-20T00:25:46.596Z,10.43
2023-03-20T00:40:49.576Z,12.20
2023-03-20T00:55:52.307Z,11.70
2023-03-20T01:10:57.663Z,11.87
2023-03-20T01:26:00.666Z,10.27
2023-03-20T01:41:18.015Z,9.63
2023-03-20T01:56:21.361Z,11.20
2023-03-20T02:11:27.007Z,9.10
2023-03-20T02:26:42.660Z,9.23
2023-03-20T02:42:06.662Z,9.23
2023-03-20T02:57:36.625Z,9.97
2023-03-20T03:12:46.752Z,9.40
2023-03-20T03:27:56.872Z,10.87
2023-03-20T03:43:20.449Z,10.07
2023-03-20T03:58:31.866Z,9.20
2023-03-20T04:13:34.883Z,9.43
2023-03-20T04:28:38.120Z,9.03
2023-03-20T04:43:56.873Z,8.63
2023-03-20T04:59:00.334Z,12.40
2023-03-20T05:14:04.578Z,16.20
2023-03-20T05:29:19.581Z,12.77
2023-03-20T05:44:41.235Z,11.97
2023-03-20T06:00:19.608Z,9.93
2023-03-20T06:15:22.333Z,10.37
2023-03-20T06:30:32.103Z,10.23
2023-03-20T06:45:36.006Z,7.63
2023-03-20T07:00:43.808Z,7.70
2023-03-20T07:16:03.047Z,7.63
2023-03-20T07:31:23.230Z,8.40
2023-03-20T07:46:31.563Z,8.03
2023-03-20T08:01:36.806Z,9.10
2023-03-20T08:16:39.578Z,10.73
2023-03-20T08:31:42.335Z,8.87
2023-03-20T08:46:46.404Z,7.80
2023-03-20T09:01:50.418Z,4.93
2023-03-20T09:16:53.768Z,4.83
2023-03-20T09:31:56.602Z,4.90
2023-03-20T09:47:33.858Z,5.40
2023-03-20T10:02:52.084Z,4.23
2023-03-20T10:18:16.185Z,4.20
2023-03-20T10:33:57.606Z,2.60
2023-03-20T10:49:18.595Z,3.70
2023-03-20T11:04:21.677Z,2.37
2023-03-20T11:19:24.548Z,2.43
2023-03-20T11:34:31.721Z,2.97
2023-03-20T11:49:50.474Z,2.30
2023-03-20T12:04:53.175Z,2.90
2023-03-20T12:20:01.445Z,3.47
2023-03-20T12:35:19.820Z,4.00
2023-03-20T12:50:40.599Z,3.73
2023-03-20T13:06:00.846Z,3.17
2023-03-20T13:21:10.612Z,3.20
2023-03-20T13:36:24.216Z,2.63
2023-03-20T13:51:30.773Z,2.33
2023-03-20T14:06:49.005Z,2.20
2023-03-20T14:21:55.205Z,2.50
2023-03-20T14:37:03.872Z,2.33
2023-03-20T14:52:37.605Z,2.37
2023-03-20T15:07:40.445Z,2.20
2023-03-20T15:23:00.737Z,2.80
2023-03-20T15:38:08.079Z,2.17
2023-03-20T15:53:16.907Z,2.57
2023-03-20T16:08:27.278Z,3.07
2023-03-20T16:23:39.874Z,2.63
2023-03-20T16:38:56.702Z,2.90
2023-03-20T16:54:03.810Z,3.40
2023-03-20T17:09:21.083Z,2.50
2023-03-20T17:24:23.725Z,3.70
2023-03-20T17:39:26.356Z,4.07
2023-03-20T17:54:29.047Z,4.13
2023-03-20T18:09:32.205Z,3.50
2023-03-20T18:24:35.489Z,5.53
2023-03-20T18:39:38.263Z,3.77
2023-03-20T18:54:41.193Z,3.90
2023-03-20T19:09:45.917Z,3.87
2023-03-20T19:24:48.692Z,3.87
2023-03-20T19:39:55.281Z,3.77
2023-03-20T19:55:03.205Z,3.87
2023-03-20T20:10:06.874Z,4.20
2023-03-20T20:25:10.925Z,4.73
2023-03-20T20:40:18.113Z,5.17
2023-03-20T20:55:24.160Z,5.03
2023-03-20T21:10:27.460Z,4.27
2023-03-20T21:25:40.156Z,4.33
2023-03-20T21:40:44.958Z,4.33
2023-03-20T22:11:56.491Z,4.57
2023-03-20T22:42:35.281Z,5.43
2023-03-20T22:57:19.801Z,5.97
2023-03-20T23:12:22.645Z,5.77
2023-03-20T23:27:25.685Z,5.70
2023-03-20T23:42:30.825Z,5.17
2023-03-20T23:57:34.816Z,5.10
